Hauptseite
METAR-TAF:

METAR-TAF

Flughäfen :

Laupheim, Deutschland

Flugplatz Laupheim

Breite: 48-13N, Länge: 009-55E, Höhe: 538 m

Beobachtung

Neuester Wetterbericht von vor 16 Minuten, um 03:20 UTC
Wind 4 kt aus Südwest
Temperatur 11°C
Luftfeuchtigkeit 76%
Luftdruck 1021 hPa
Sichtweite 10 km oder mehr

METAR: ETHL 210320Z 22004KT 9999 11/07 Q1021 BLU+

Zeit: 05:36 (03:36 UTC)

Prognose

Neuester Wetterbericht von vor 18 Stunden und 5 Minuten, um 09:31 UTC
Gültige Prognose vom 20 um 10 UTC bis 20 um 17 UTC
Wind 3 kt aus unterschiedlichen Richtungen
Sichtweite: 1030 m
Leicht bewölkt in der Höhe von 30000 ft

TAF: ETHL 200931Z 2010/2017 VRB03KT 9999 NSW FEW300 CANCEL 1030

Wetterbeobachtungen und Prognosen von mehr als 4000 Flughäfen (METAR und TAF Bericht).

Die verfügbaren Stationen werden durch gelbe und rote Markierungen auf der Karte dargestellt.

Führen Sie die Maus auf sie, um den Namen der Station zu sehen.

Darauf klicken, um die Beobachtung von Wetterbeobachtungen und Prognosen zu sehen.

Um die Karte zu ändern : klicken Sie auf den grünen Tasten mit einem schwarzen Kreuz Zum Vergrößern, auf den grünen Button mit einem Gedankenstrich zu verkleinern, oder auf die grünen Pfeile für benachbarte Karten.


METAR-TAF: